sensor_id;sensor_type;location;lat;lon;timestamp;pressure;altitude;pressure_sealevel;temperature;humidity
63700;BME280;49845;47.130;142.766;2023-03-13T00:01:23;100338.13;;;7.14;70.30
63700;BME280;49845;47.130;142.766;2023-03-13T00:03:54;100345.91;;;7.16;70.23
63700;BME280;49845;47.130;142.766;2023-03-13T00:06:26;100334.66;;;7.12;70.29
63700;BME280;49845;47.130;142.766;2023-03-13T00:09:03;100287.06;;;6.72;70.82
63700;BME280;49845;47.130;142.766;2023-03-13T00:11:34;100347.66;;;7.15;70.43
63700;BME280;49845;47.130;142.766;2023-03-13T00:14:06;100331.19;;;7.19;70.24
63700;BME280;49845;47.130;142.766;2023-03-13T00:16:37;100339.84;;;7.27;70.30
63700;BME280;49845;47.130;142.766;2023-03-13T00:19:08;100343.28;;;7.32;70.26
63700;BME280;49845;47.130;142.766;2023-03-13T00:21:39;100339.81;;;7.37;69.66
63700;BME280;49845;47.130;142.766;2023-03-13T00:24:11;100323.34;;;7.38;69.34
63700;BME280;49845;47.130;142.766;2023-03-13T00:26:42;100305.16;;;7.34;69.11
63700;BME280;49845;47.130;142.766;2023-03-13T00:29:12;100309.47;;;7.35;69.46
63700;BME280;49845;47.130;142.766;2023-03-13T00:31:43;100296.44;;;7.48;68.85
63700;BME280;49845;47.130;142.766;2023-03-13T00:34:14;100269.59;;;7.49;68.79
63700;BME280;49845;47.130;142.766;2023-03-13T00:36:44;100268.69;;;7.53;68.43
63700;BME280;49845;47.130;142.766;2023-03-13T00:39:17;100277.34;;;7.58;68.16
63700;BME280;49845;47.130;142.766;2023-03-13T00:41:47;100270.41;;;7.66;68.24
63700;BME280;49845;47.130;142.766;2023-03-13T00:44:18;100280.75;;;7.72;67.63
63700;BME280;49845;47.130;142.766;2023-03-13T00:46:49;100261.66;;;7.73;67.68
63700;BME280;49845;47.130;142.766;2023-03-13T00:49:20;100266.00;;;7.79;67.47
63700;BME280;49845;47.130;142.766;2023-03-13T00:51:50;100266.84;;;7.83;67.21
63700;BME280;49845;47.130;142.766;2023-03-13T00:54:22;100261.59;;;7.92;66.82
63700;BME280;49845;47.130;142.766;2023-03-13T00:56:53;100247.72;;;7.90;66.58
63700;BME280;49845;47.130;142.766;2023-03-13T00:59:24;100238.97;;;7.98;66.18
63700;BME280;49845;47.130;142.766;2023-03-13T01:01:54;100236.34;;;8.03;65.97
63700;BME280;49845;47.130;142.766;2023-03-13T01:04:25;100238.03;;;8.16;65.76
63700;BME280;49845;47.130;142.766;2023-03-13T01:06:56;100236.25;;;8.20;65.63
63700;BME280;49845;47.130;142.766;2023-03-13T01:09:28;100224.94;;;8.23;65.63
63700;BME280;49845;47.130;142.766;2023-03-13T01:11:58;100236.22;;;8.25;65.17
63700;BME280;49845;47.130;142.766;2023-03-13T01:14:29;100237.06;;;8.31;65.18
63700;BME280;49845;47.130;142.766;2023-03-13T01:17:00;100155.84;;;7.85;65.05
63700;BME280;49845;47.130;142.766;2023-03-13T01:19:31;100245.66;;;8.38;64.74
63700;BME280;49845;47.130;142.766;2023-03-13T01:22:01;100238.75;;;8.40;64.86
63700;BME280;49845;47.130;142.766;2023-03-13T01:24:34;100241.34;;;8.37;64.79
63700;BME280;49845;47.130;142.766;2023-03-13T01:27:04;100250.88;;;8.44;64.84
63700;BME280;49845;47.130;142.766;2023-03-13T01:29:35;100241.28;;;8.48;64.80
63700;BME280;49845;47.130;142.766;2023-03-13T01:32:06;100249.13;;;8.43;64.81
63700;BME280;49845;47.130;142.766;2023-03-13T01:34:37;100253.47;;;8.38;65.07
63700;BME280;49845;47.130;142.766;2023-03-13T01:37:08;100266.47;;;8.47;64.71
63700;BME280;49845;47.130;142.766;2023-03-13T01:39:43;100276.81;;;8.53;64.58
63700;BME280;49845;47.130;142.766;2023-03-13T01:42:13;100262.03;;;8.57;64.43
63700;BME280;49845;47.130;142.766;2023-03-13T01:44:51;100252.41;;;8.63;64.03
63700;BME280;49845;47.130;142.766;2023-03-13T01:47:23;100248.91;;;8.68;64.14
63700;BME280;49845;47.130;142.766;2023-03-13T01:49:53;100242.59;;;8.96;63.93
63700;BME280;49845;47.130;142.766;2023-03-13T01:52:25;100216.41;;;9.09;63.32
63700;BME280;49845;47.130;142.766;2023-03-13T01:55:07;100176.84;;;8.71;63.10
63700;BME280;49845;47.130;142.766;2023-03-13T01:57:41;100234.72;;;8.99;63.48
63700;BME280;49845;47.130;142.766;2023-03-13T02:00:16;100231.28;;;8.97;63.38
63700;BME280;49845;47.130;142.766;2023-03-13T02:02:50;100229.47;;;9.02;63.27
63700;BME280;49845;47.130;142.766;2023-03-13T02:05:24;100227.78;;;8.98;63.30
63700;BME280;49845;47.130;142.766;2023-03-13T02:07:59;100224.34;;;8.93;63.79
63700;BME280;49845;47.130;142.766;2023-03-13T02:10:36;100205.34;;;8.85;63.60
63700;BME280;49845;47.130;142.766;2023-03-13T02:13:08;100216.69;;;8.79;63.83
63700;BME280;49845;47.130;142.766;2023-03-13T02:15:42;100200.09;;;8.88;63.84
63700;BME280;49845;47.130;142.766;2023-03-13T02:18:14;100189.56;;;8.97;63.41
63700;BME280;49845;47.130;142.766;2023-03-13T02:20:46;100203.38;;;9.05;63.44
63700;BME280;49845;47.130;142.766;2023-03-13T02:23:23;100189.41;;;9.13;63.08
63700;BME280;49845;47.130;142.766;2023-03-13T02:25:58;100192.25;;;9.64;62.14
63700;BME280;49845;47.130;142.766;2023-03-13T02:28:31;100196.84;;;10.07;61.32
63700;BME280;49845;47.130;142.766;2023-03-13T02:31:04;100184.22;;;10.36;59.12
63700;BME280;49845;47.130;142.766;2023-03-13T02:33:38;100190.28;;;10.37;59.27
63700;BME280;49845;47.130;142.766;2023-03-13T02:36:10;100182.84;;;10.11;59.42
63700;BME280;49845;47.130;142.766;2023-03-13T02:38:44;100191.16;;;9.79;60.40
63700;BME280;49845;47.130;142.766;2023-03-13T02:41:19;100190.66;;;9.54;61.29
63700;BME280;49845;47.130;142.766;2023-03-13T02:43:50;100185.59;;;9.38;61.56
63700;BME280;49845;47.130;142.766;2023-03-13T02:46:21;100199.03;;;9.06;62.57
63700;BME280;49845;47.130;142.766;2023-03-13T02:48:53;100193.22;;;8.81;63.65
63700;BME280;49845;47.130;142.766;2023-03-13T02:51:28;100191.63;;;8.66;64.02
63700;BME280;49845;47.130;142.766;2023-03-13T02:54:00;100193.38;;;8.66;64.23
63700;BME280;49845;47.130;142.766;2023-03-13T02:56:36;100189.88;;;8.70;64.16
63700;BME280;49845;47.130;142.766;2023-03-13T02:59:07;100187.34;;;8.60;64.35
63700;BME280;49845;47.130;142.766;2023-03-13T03:01:38;100176.06;;;8.58;64.90
63700;BME280;49845;47.130;142.766;2023-03-13T03:04:09;100173.47;;;8.61;65.06
63700;BME280;49845;47.130;142.766;2023-03-13T03:06:39;100174.31;;;8.60;65.02
63700;BME280;49845;47.130;142.766;2023-03-13T03:09:10;100177.97;;;8.41;65.37
63700;BME280;49845;47.130;142.766;2023-03-13T03:11:42;100174.59;;;8.27;66.02
63700;BME280;49845;47.130;142.766;2023-03-13T03:14:13;100180.81;;;8.07;66.22
63700;BME280;49845;47.130;142.766;2023-03-13T03:16:44;100176.63;;;7.88;66.80
63700;BME280;49845;47.130;142.766;2023-03-13T03:19:15;100175.88;;;7.72;67.47
63700;BME280;49845;47.130;142.766;2023-03-13T03:21:46;100172.38;;;7.73;67.68
63700;BME280;49845;47.130;142.766;2023-03-13T03:24:18;100173.28;;;7.67;67.26
63700;BME280;49845;47.130;142.766;2023-03-13T03:26:50;100173.31;;;7.64;67.11
63700;BME280;49845;47.130;142.766;2023-03-13T03:29:21;100168.09;;;7.61;68.16
63700;BME280;49845;47.130;142.766;2023-03-13T03:31:51;100162.88;;;7.70;68.44
63700;BME280;49845;47.130;142.766;2023-03-13T03:34:22;100152.44;;;7.76;67.74
63700;BME280;49845;47.130;142.766;2023-03-13T03:36:53;100140.28;;;7.75;67.68
63700;BME280;49845;47.130;142.766;2023-03-13T03:39:24;100064.28;;;7.37;67.84
63700;BME280;49845;47.130;142.766;2023-03-13T03:41:56;100129.91;;;7.72;67.14
63700;BME280;49845;47.130;142.766;2023-03-13T03:44:27;100108.34;;;7.56;67.40
63700;BME280;49845;47.130;142.766;2023-03-13T03:46:57;100098.88;;;7.48;67.57
63700;BME280;49845;47.130;142.766;2023-03-13T03:49:31;100100.66;;;7.40;67.47
63700;BME280;49845;47.130;142.766;2023-03-13T03:52:01;100085.06;;;7.40;67.79
63700;BME280;49845;47.130;142.766;2023-03-13T03:54:32;100064.22;;;7.49;67.98
63700;BME280;49845;47.130;142.766;2023-03-13T03:57:04;100069.28;;;7.61;67.51
63700;BME280;49845;47.130;142.766;2023-03-13T03:59:35;100071.91;;;7.64;67.11
63700;BME280;49845;47.130;142.766;2023-03-13T04:02:05;100066.75;;;7.56;67.26
63700;BME280;49845;47.130;142.766;2023-03-13T04:04:36;100048.69;;;7.37;67.56
63700;BME280;49845;47.130;142.766;2023-03-13T04:07:07;100042.59;;;7.41;67.81
63700;BME280;49845;47.130;142.766;2023-03-13T04:09:38;100049.56;;;7.35;68.11
63700;BME280;49845;47.130;142.766;2023-03-13T04:12:10;100053.06;;;7.31;68.38
63700;BME280;49845;47.130;142.766;2023-03-13T04:14:41;100053.91;;;7.30;68.63
63700;BME280;49845;47.130;142.766;2023-03-13T04:17:12;100040.91;;;7.30;68.98
63700;BME280;49845;47.130;142.766;2023-03-13T04:19:44;100040.13;;;7.22;68.72
63700;BME280;49845;47.130;142.766;2023-03-13T04:22:14;100047.09;;;7.11;69.13
63700;BME280;49845;47.130;142.766;2023-03-13T04:24:45;100035.94;;;6.94;70.39
63700;BME280;49845;47.130;142.766;2023-03-13T04:27:17;100027.34;;;6.82;70.51
63700;BME280;49845;47.130;142.766;2023-03-13T04:29:48;99990.25;;;6.53;71.22
63700;BME280;49845;47.130;142.766;2023-03-13T04:32:19;100019.63;;;6.67;71.28
63700;BME280;49845;47.130;142.766;2023-03-13T04:34:49;100008.31;;;6.76;71.88
63700;BME280;49845;47.130;142.766;2023-03-13T04:37:20;99998.75;;;6.85;71.65
63700;BME280;49845;47.130;142.766;2023-03-13T04:39:50;100017.81;;;6.84;71.54
63700;BME280;49845;47.130;142.766;2023-03-13T04:42:23;99998.00;;;6.65;71.81
63700;BME280;49845;47.130;142.766;2023-03-13T04:44:53;100030.03;;;6.61;71.98
63700;BME280;49845;47.130;142.766;2023-03-13T04:47:24;100005.88;;;6.50;72.45
63700;BME280;49845;47.130;142.766;2023-03-13T04:49:55;100001.50;;;6.55;72.30
63700;BME280;49845;47.130;142.766;2023-03-13T04:52:25;99993.72;;;6.55;72.43
63700;BME280;49845;47.130;142.766;2023-03-13T04:54:56;100005.88;;;6.43;72.42
63700;BME280;49845;47.130;142.766;2023-03-13T04:57:28;99979.94;;;6.37;72.62
63700;BME280;49845;47.130;142.766;2023-03-13T04:59:58;99969.59;;;6.34;72.55
63700;BME280;49845;47.130;142.766;2023-03-13T05:02:29;99989.34;;;6.61;73.28
63700;BME280;49845;47.130;142.766;2023-03-13T05:05:00;99998.81;;;6.73;72.66
63700;BME280;49845;47.130;142.766;2023-03-13T05:07:30;99983.22;;;6.79;71.93
63700;BME280;49845;47.130;142.766;2023-03-13T05:10:01;99969.34;;;6.80;71.47
63700;BME280;49845;47.130;142.766;2023-03-13T05:12:33;99962.44;;;6.76;71.63
63700;BME280;49845;47.130;142.766;2023-03-13T05:15:04;99963.25;;;6.89;71.77
63700;BME280;49845;47.130;142.766;2023-03-13T05:17:35;99959.81;;;6.87;71.61
63700;BME280;49845;47.130;142.766;2023-03-13T05:20:06;99962.38;;;6.88;71.48
63700;BME280;49845;47.130;142.766;2023-03-13T05:22:38;99933.81;;;6.90;71.81
63700;BME280;49845;47.130;142.766;2023-03-13T05:25:09;99937.19;;;6.98;71.78
63700;BME280;49845;47.130;142.766;2023-03-13T05:27:42;99936.19;;;7.16;71.49
63700;BME280;49845;47.130;142.766;2023-03-13T05:30:13;99941.50;;;7.01;71.02
63700;BME280;49845;47.130;142.766;2023-03-13T05:32:43;99946.88;;;6.76;71.60
63700;BME280;49845;47.130;142.766;2023-03-13T05:35:14;99924.50;;;6.54;71.79
63700;BME280;49845;47.130;142.766;2023-03-13T05:37:45;99922.81;;;6.43;72.91
63700;BME280;49845;47.130;142.766;2023-03-13T05:40:15;99907.28;;;6.37;73.25
63700;BME280;49845;47.130;142.766;2023-03-13T05:42:48;99902.09;;;6.37;73.83
63700;BME280;49845;47.130;142.766;2023-03-13T05:45:18;99912.47;;;6.40;73.97
63700;BME280;49845;47.130;142.766;2023-03-13T05:47:49;99911.59;;;6.40;73.60
63700;BME280;49845;47.130;142.766;2023-03-13T05:50:19;99915.97;;;6.24;73.99
63700;BME280;49845;47.130;142.766;2023-03-13T05:52:50;99911.72;;;6.15;74.34
63700;BME280;49845;47.130;142.766;2023-03-13T05:55:21;99920.41;;;6.02;74.87
63700;BME280;49845;47.130;142.766;2023-03-13T05:57:53;99902.22;;;6.03;75.44
63700;BME280;49845;47.130;142.766;2023-03-13T06:00:24;99917.84;;;5.94;75.26
63700;BME280;49845;47.130;142.766;2023-03-13T06:02:54;99907.50;;;5.73;75.54
63700;BME280;49845;47.130;142.766;2023-03-13T06:05:25;99901.47;;;5.63;76.73
63700;BME280;49845;47.130;142.766;2023-03-13T06:07:55;99884.19;;;5.57;76.61
63700;BME280;49845;47.130;142.766;2023-03-13T06:10:26;99879.88;;;5.56;76.98
63700;BME280;49845;47.130;142.766;2023-03-13T06:12:58;99883.31;;;5.65;77.14
63700;BME280;49845;47.130;142.766;2023-03-13T06:15:50;99885.88;;;5.72;77.30
63700;BME280;49845;47.130;142.766;2023-03-13T06:18:22;99884.16;;;5.74;77.10
63700;BME280;49845;47.130;142.766;2023-03-13T06:20:56;99871.19;;;5.76;77.24
63700;BME280;49845;47.130;142.766;2023-03-13T06:23:27;99878.09;;;5.71;77.34
63700;BME280;49845;47.130;142.766;2023-03-13T06:25:59;99873.81;;;5.59;77.13
63700;BME280;49845;47.130;142.766;2023-03-13T06:28:31;99872.97;;;5.55;77.31
63700;BME280;49845;47.130;142.766;2023-03-13T06:31:02;99867.81;;;5.43;77.73
63700;BME280;49845;47.130;142.766;2023-03-13T06:33:33;99874.75;;;5.32;78.07
63700;BME280;49845;47.130;142.766;2023-03-13T06:36:05;99835.03;;;5.08;78.48
63700;BME280;49845;47.130;142.766;2023-03-13T06:38:36;99861.78;;;5.27;78.98
63700;BME280;49845;47.130;142.766;2023-03-13T06:41:06;99866.09;;;5.24;79.41
63700;BME280;49845;47.130;142.766;2023-03-13T06:43:38;99848.84;;;5.16;79.37
63700;BME280;49845;47.130;142.766;2023-03-13T06:46:15;99816.06;;;5.00;79.89
63700;BME280;49845;47.130;142.766;2023-03-13T06:48:46;99844.53;;;5.11;80.20
63700;BME280;49845;47.130;142.766;2023-03-13T06:51:19;99840.22;;;5.05;80.85
63700;BME280;49845;47.130;142.766;2023-03-13T06:53:50;99833.31;;;5.10;81.01
63700;BME280;49845;47.130;142.766;2023-03-13T06:56:21;99836.78;;;5.12;81.10
63700;BME280;49845;47.130;142.766;2023-03-13T06:58:53;99835.06;;;5.02;81.58
63700;BME280;49845;47.130;142.766;2023-03-13T07:01:26;99843.69;;;5.10;81.77
63700;BME280;49845;47.130;142.766;2023-03-13T07:03:57;99838.50;;;5.10;82.08
63700;BME280;49845;47.130;142.766;2023-03-13T07:06:27;99798.81;;;4.93;81.76
63700;BME280;49845;47.130;142.766;2023-03-13T07:08:58;99858.34;;;5.05;81.91
63700;BME280;49845;47.130;142.766;2023-03-13T07:11:29;99837.66;;;4.90;82.17
63700;BME280;49845;47.130;142.766;2023-03-13T07:14:01;99833.31;;;4.89;83.02
63700;BME280;49845;47.130;142.766;2023-03-13T07:16:45;99839.38;;;4.80;83.05
63700;BME280;49845;47.130;142.766;2023-03-13T07:19:18;99837.63;;;4.68;83.48
63700;BME280;49845;47.130;142.766;2023-03-13T07:21:48;99838.50;;;4.64;84.32
63700;BME280;49845;47.130;142.766;2023-03-13T07:24:20;99828.13;;;4.61;84.45
63700;BME280;49845;47.130;142.766;2023-03-13T07:26:54;99831.59;;;4.52;84.97
63700;BME280;49845;47.130;142.766;2023-03-13T07:29:35;99842.78;;;4.45;85.31
63700;BME280;49845;47.130;142.766;2023-03-13T07:32:06;99841.91;;;4.39;85.52
63700;BME280;49845;47.130;142.766;2023-03-13T07:34:37;99847.94;;;4.33;86.80
63700;BME280;49845;47.130;142.766;2023-03-13T07:37:07;99825.50;;;4.23;87.42
63700;BME280;49845;47.130;142.766;2023-03-13T07:39:38;99819.44;;;4.10;88.01
63700;BME280;49845;47.130;142.766;2023-03-13T07:42:09;99822.84;;;4.00;88.67
63700;BME280;49845;47.130;142.766;2023-03-13T07:44:41;99826.28;;;3.99;89.56
63700;BME280;49845;47.130;142.766;2023-03-13T07:47:12;99833.16;;;3.91;90.07
63700;BME280;49845;47.130;142.766;2023-03-13T07:49:43;99795.22;;;3.83;90.13
63700;BME280;49845;47.130;142.766;2023-03-13T07:52:14;99822.78;;;3.81;90.64
63700;BME280;49845;47.130;142.766;2023-03-13T07:54:45;99787.41;;;3.74;91.06
63700;BME280;49845;47.130;142.766;2023-03-13T07:57:15;99790.00;;;3.71;92.05
63700;BME280;49845;47.130;142.766;2023-03-13T07:59:47;99796.03;;;3.72;92.59
63700;BME280;49845;47.130;142.766;2023-03-13T08:02:23;99785.66;;;3.64;92.94
63700;BME280;49845;47.130;142.766;2023-03-13T08:05:18;99813.22;;;3.63;93.24
63700;BME280;49845;47.130;142.766;2023-03-13T08:07:58;99803.75;;;3.61;93.86
63700;BME280;49845;47.130;142.766;2023-03-13T08:10:34;99803.75;;;3.58;94.10
63700;BME280;49845;47.130;142.766;2023-03-13T08:13:07;99796.81;;;3.54;94.07
63700;BME280;49845;47.130;142.766;2023-03-13T08:15:39;99799.38;;;3.48;94.58
63700;BME280;49845;47.130;142.766;2023-03-13T08:18:10;99795.09;;;3.53;94.91
63700;BME280;49845;47.130;142.766;2023-03-13T08:20:42;99784.78;;;3.59;95.37
63700;BME280;49845;47.130;142.766;2023-03-13T08:23:22;99779.59;;;3.53;95.04
63700;BME280;49845;47.130;142.766;2023-03-13T08:25:54;99789.94;;;3.50;95.52
63700;BME280;49845;47.130;142.766;2023-03-13T08:28:28;99795.09;;;3.50;96.06
63700;BME280;49845;47.130;142.766;2023-03-13T08:31:08;99791.63;;;3.44;96.02
63700;BME280;49845;47.130;142.766;2023-03-13T08:33:41;99783.88;;;3.46;96.84
63700;BME280;49845;47.130;142.766;2023-03-13T08:36:14;99788.19;;;3.49;96.95
63700;BME280;49845;47.130;142.766;2023-03-13T08:38:46;99777.78;;;3.30;96.91
63700;BME280;49845;47.130;142.766;2023-03-13T08:41:23;99776.09;;;3.41;97.10
63700;BME280;49845;47.130;142.766;2023-03-13T08:44:08;99786.47;;;3.51;97.65
63700;BME280;49845;47.130;142.766;2023-03-13T08:46:42;99774.44;;;3.53;97.68
63700;BME280;49845;47.130;142.766;2023-03-13T08:49:24;99796.88;;;3.60;97.54
63700;BME280;49845;47.130;142.766;2023-03-13T08:51:59;99797.72;;;3.63;98.91
63700;BME280;49845;47.130;142.766;2023-03-13T08:54:33;99781.25;;;3.38;98.68
63700;BME280;49845;47.130;142.766;2023-03-13T08:57:11;99815.72;;;3.46;98.22
63700;BME280;49845;47.130;142.766;2023-03-13T08:59:47;99832.81;;;3.23;98.30
63700;BME280;49845;47.130;142.766;2023-03-13T09:02:26;99837.03;;;3.10;98.85
63700;BME280;49845;47.130;142.766;2023-03-13T09:05:09;99853.28;;;2.98;98.55
63700;BME280;49845;47.130;142.766;2023-03-13T09:07:44;99837.66;;;2.80;98.89
63700;BME280;49845;47.130;142.766;2023-03-13T09:10:20;99853.16;;;2.80;99.19
63700;BME280;49845;47.130;142.766;2023-03-13T09:13:07;99859.13;;;2.76;99.70
63700;BME280;49845;47.130;142.766;2023-03-13T09:15:45;99854.84;;;2.75;99.55
63700;BME280;49845;47.130;142.766;2023-03-13T09:18:27;99832.19;;;2.46;99.73
63700;BME280;49845;47.130;142.766;2023-03-13T09:21:00;99807.91;;;2.23;99.60
63700;BME280;49845;47.130;142.766;2023-03-13T09:23:34;99889.97;;;2.62;99.87
63700;BME280;49845;47.130;142.766;2023-03-13T09:26:12;99875.25;;;2.53;99.76
63700;BME280;49845;47.130;142.766;2023-03-13T09:28:52;99892.41;;;2.51;99.71
63700;BME280;49845;47.130;142.766;2023-03-13T09:31:23;99907.81;;;2.42;99.52
63700;BME280;49845;47.130;142.766;2023-03-13T09:33:58;99907.75;;;2.36;99.85
63700;BME280;49845;47.130;142.766;2023-03-13T09:36:39;99922.22;;;2.25;98.97
63700;BME280;49845;47.130;142.766;2023-03-13T09:39:12;99917.84;;;2.18;98.88
63700;BME280;49845;47.130;142.766;2023-03-13T09:41:48;99934.84;;;2.03;98.80
63700;BME280;49845;47.130;142.766;2023-03-13T09:44:45;99922.56;;;1.84;98.70
63700;BME280;49845;47.130;142.766;2023-03-13T09:48:05;99927.63;;;1.78;99.29
63700;BME280;49845;47.130;142.766;2023-03-13T09:50:55;99935.34;;;1.76;98.80
63700;BME280;49845;47.130;142.766;2023-03-13T09:53:47;99944.59;;;1.63;98.31
63700;BME280;49845;47.130;142.766;2023-03-13T09:56:38;99941.78;;;1.46;98.88
63700;BME280;49845;47.130;142.766;2023-03-13T09:59:18;99957.22;;;1.45;99.02
63700;BME280;49845;47.130;142.766;2023-03-13T10:01:55;99949.34;;;1.36;99.42
63700;BME280;49845;47.130;142.766;2023-03-13T10:04:31;99971.81;;;1.46;99.47
63700;BME280;49845;47.130;142.766;2023-03-13T10:07:12;99960.72;;;1.51;99.89
63700;BME280;49845;47.130;142.766;2023-03-13T10:09:48;99959.88;;;1.51;99.54
63700;BME280;49845;47.130;142.766;2023-03-13T10:12:27;99896.63;;;1.12;99.55
63700;BME280;49845;47.130;142.766;2023-03-13T10:15:26;99951.28;;;1.52;99.42
63700;BME280;49845;47.130;142.766;2023-03-13T10:18:09;99958.34;;;1.62;99.70
63700;BME280;49845;47.130;142.766;2023-03-13T10:20:47;99955.09;;;1.76;99.91
63700;BME280;49845;47.130;142.766;2023-03-13T10:23:29;99963.75;;;1.81;99.19
63700;BME280;49845;47.130;142.766;2023-03-13T10:26:17;99958.66;;;1.87;98.86
63700;BME280;49845;47.130;142.766;2023-03-13T10:29:15;99962.09;;;1.86;98.72
63700;BME280;49845;47.130;142.766;2023-03-13T10:31:57;99967.25;;;1.86;98.17
63700;BME280;49845;47.130;142.766;2023-03-13T10:34:54;99923.88;;;1.57;97.70
63700;BME280;49845;47.130;142.766;2023-03-13T10:37:41;99972.28;;;1.80;97.99
63700;BME280;49845;47.130;142.766;2023-03-13T10:40:46;99976.56;;;1.76;97.58
63700;BME280;49845;47.130;142.766;2023-03-13T10:43:49;99973.22;;;1.83;98.01
63700;BME280;49845;47.130;142.766;2023-03-13T10:46:25;99973.94;;;1.75;97.40
63700;BME280;49845;47.130;142.766;2023-03-13T10:49:10;99963.56;;;1.68;97.71
63700;BME280;49845;47.130;142.766;2023-03-13T10:51:49;99979.06;;;1.71;97.61
63700;BME280;49845;47.130;142.766;2023-03-13T10:54:24;99972.34;;;1.81;97.83
63700;BME280;49845;47.130;142.766;2023-03-13T10:57:22;99988.75;;;1.88;97.59
63700;BME280;49845;47.130;142.766;2023-03-13T10:59:58;99992.28;;;1.96;97.44
63700;BME280;49845;47.130;142.766;2023-03-13T11:02:37;99985.28;;;1.86;97.07
63700;BME280;49845;47.130;142.766;2023-03-13T11:05:32;99985.25;;;1.83;96.93
63700;BME280;49845;47.130;142.766;2023-03-13T11:08:18;99977.44;;;1.78;96.98
63700;BME280;49845;47.130;142.766;2023-03-13T11:11:14;99948.06;;;1.65;96.59
63700;BME280;49845;47.130;142.766;2023-03-13T11:13:49;99992.22;;;1.91;96.30
63700;BME280;49845;47.130;142.766;2023-03-13T11:16:29;99999.88;;;1.87;96.18
63700;BME280;49845;47.130;142.766;2023-03-13T11:22:29;99986.03;;;1.79;96.29
63700;BME280;49845;47.130;142.766;2023-03-13T11:25:07;99990.50;;;1.90;96.30
63700;BME280;49845;47.130;142.766;2023-03-13T11:27:50;99994.91;;;1.99;96.79
63700;BME280;49845;47.130;142.766;2023-03-13T11:30:50;99993.22;;;2.01;96.40
63700;BME280;49845;47.130;142.766;2023-03-13T11:33:43;99999.16;;;1.96;95.89
63700;BME280;49845;47.130;142.766;2023-03-13T11:36:31;99946.38;;;1.67;95.62
63700;BME280;49845;47.130;142.766;2023-03-13T11:45:21;99972.41;;;1.86;96.34
63700;BME280;49845;47.130;142.766;2023-03-13T11:48:01;99973.22;;;1.83;96.57
63700;BME280;49845;47.130;142.766;2023-03-13T11:50:40;99977.53;;;1.83;96.39
63700;BME280;49845;47.130;142.766;2023-03-13T11:53:34;99972.38;;;1.83;96.68
63700;BME280;49845;47.130;142.766;2023-03-13T11:56:23;99979.19;;;1.81;97.11
63700;BME280;49845;47.130;142.766;2023-03-13T11:59:05;99986.13;;;1.85;97.13
63700;BME280;49845;47.130;142.766;2023-03-13T12:02:14;99973.13;;;1.77;97.03
63700;BME280;49845;47.130;142.766;2023-03-13T12:05:07;99976.59;;;1.78;96.94
63700;BME280;49845;47.130;142.766;2023-03-13T12:07:51;99970.56;;;1.79;97.27
63700;BME280;49845;47.130;142.766;2023-03-13T12:10:36;99982.63;;;1.81;97.54
63700;BME280;49845;47.130;142.766;2023-03-13T12:13:14;99981.75;;;1.78;97.73
63700;BME280;49845;47.130;142.766;2023-03-13T12:15:53;99987.63;;;1.70;97.25
63700;BME280;49845;47.130;142.766;2023-03-13T12:18:59;99943.44;;;1.44;97.35
63700;BME280;49845;47.130;142.766;2023-03-13T12:21:36;99980.84;;;1.76;97.48
63700;BME280;49845;47.130;142.766;2023-03-13T12:24:24;99991.19;;;1.79;97.49
63700;BME280;49845;47.130;142.766;2023-03-13T12:27:10;100004.81;;;1.71;97.44
63700;BME280;49845;47.130;142.766;2023-03-13T12:29:52;100003.06;;;1.67;96.89
63700;BME280;49845;47.130;142.766;2023-03-13T12:32:38;100005.59;;;1.66;97.06
63700;BME280;49845;47.130;142.766;2023-03-13T12:35:19;99990.97;;;1.63;97.39
63700;BME280;49845;47.130;142.766;2023-03-13T12:38:08;99969.38;;;1.55;97.23
63700;BME280;49845;47.130;142.766;2023-03-13T12:40:44;99989.16;;;1.59;97.15
63700;BME280;49845;47.130;142.766;2023-03-13T12:43:21;99985.66;;;1.54;97.24
63700;BME280;49845;47.130;142.766;2023-03-13T12:46:17;99983.94;;;1.53;97.36
63700;BME280;49845;47.130;142.766;2023-03-13T12:52:03;99967.81;;;1.66;98.17
63700;BME280;49845;47.130;142.766;2023-03-13T12:54:52;99972.03;;;1.61;97.75
63700;BME280;49845;47.130;142.766;2023-03-13T13:00:29;99968.38;;;1.47;97.59
63700;BME280;49845;47.130;142.766;2023-03-13T13:03:19;99989.13;;;1.56;98.23
63700;BME280;49845;47.130;142.766;2023-03-13T13:06:07;99975.34;;;1.54;98.34
63700;BME280;49845;47.130;142.766;2023-03-13T13:08:40;99976.06;;;1.44;97.92
63700;BME280;49845;47.130;142.766;2023-03-13T13:14:58;99971.53;;;1.27;98.64
63700;BME280;49845;47.130;142.766;2023-03-13T13:17:58;99908.97;;;0.81;98.78
63700;BME280;49845;47.130;142.766;2023-03-13T13:20:43;99959.53;;;1.29;99.57
63700;BME280;49845;47.130;142.766;2023-03-13T13:23:50;99977.81;;;1.46;99.59
63700;BME280;49845;47.130;142.766;2023-03-13T13:26:57;99982.00;;;1.40;99.17
63700;BME280;49845;47.130;142.766;2023-03-13T13:30:00;99973.47;;;1.44;99.24
63700;BME280;49845;47.130;142.766;2023-03-13T13:32:40;99983.91;;;1.50;99.77
63700;BME280;49845;47.130;142.766;2023-03-13T13:35:29;99984.69;;;1.46;99.54
63700;BME280;49845;47.130;142.766;2023-03-13T13:38:33;99988.09;;;1.45;99.62
63700;BME280;49845;47.130;142.766;2023-03-13T13:44:33;99916.22;;;1.04;99.87
63700;BME280;49845;47.130;142.766;2023-03-13T13:47:22;99973.72;;;1.59;100.00
63700;BME280;49845;47.130;142.766;2023-03-13T13:49:55;99970.25;;;1.57;100.00
63700;BME280;49845;47.130;142.766;2023-03-13T13:52:34;99971.22;;;1.62;100.00
63700;BME280;49845;47.130;142.766;2023-03-13T13:55:39;99983.28;;;1.65;99.88